Time;durP1;ratioP1;P1;durP2;ratioP2;P2;SDS_P1;SDS_P2;PMS_P1;PMS_P2;Temp;Humidity;BMP_temperature;BMP_pressure;BME280_temperature;BME280_humidity;BME280_pressure;Samples;Min_cycle;Max_cycle;Signal;HPM_P1;HPM_P2
2022/10/04 00:00:12;;;;;;;;;;;20.50;51.60;;;;;;5029499;28;19967;-69
2022/10/04 00:02:38;;;;;;;;;;;20.50;51.60;;;;;;5033464;28;19933;-69
2022/10/04 00:05:06;;;;;;;;;;;20.50;51.50;;;;;;5031196;28;19952;-69
2022/10/04 00:07:33;;;;;;;;;;;20.50;51.50;;;;;;5022300;28;20009;-68
2022/10/04 00:10:02;;;;;;;;;;;20.50;51.50;;;;;;5030451;28;19929;-67
2022/10/04 00:12:33;;;;;;;;;;;20.60;51.60;;;;;;5030743;28;19983;-68
2022/10/04 00:15:00;;;;;;;;;;;20.50;51.50;;;;;;5032165;28;19995;-69
2022/10/04 00:17:34;;;;;;;;;;;20.60;51.50;;;;;;5030751;28;19998;-70
2022/10/04 00:20:01;;;;;;;;;;;20.50;51.40;;;;;;5024493;28;19929;-67
2022/10/04 00:22:28;;;;;;;;;;;20.50;51.40;;;;;;5028466;28;19929;-68
2022/10/04 00:25:16;;;;;;;;;;;20.50;51.40;;;;;;5028954;28;19929;-68
2022/10/04 00:27:58;;;;;;;;;;;20.50;51.40;;;;;;5008918;28;20157;-68
2022/10/04 00:30:26;;;;;;;;;;;20.50;51.40;;;;;;5034502;28;19980;-68
2022/10/04 00:33:00;;;;;;;;;;;20.50;51.40;;;;;;5028727;28;19940;-68
2022/10/04 00:35:46;;;;;;;;;;;20.50;51.30;;;;;;5022760;28;19925;-68
2022/10/04 00:38:13;;;;;;;;;;;20.50;51.30;;;;;;5030376;28;19925;-68
2022/10/04 00:40:42;;;;;;;;;;;20.50;51.30;;;;;;5024120;28;19925;-67
2022/10/04 00:43:08;;;;;;;;;;;20.50;51.30;;;;;;5030657;28;19972;-69
2022/10/04 00:45:37;;;;;;;;;;;20.50;51.30;;;;;;5030241;28;20028;-67
2022/10/04 00:48:05;;;;;;;;;;;20.50;51.30;;;;;;5030363;28;20579;-68
2022/10/04 00:50:34;;;;;;;;;;;20.50;51.30;;;;;;5029591;28;20007;-68
2022/10/04 00:53:02;;;;;;;;;;;20.50;51.20;;;;;;5029027;28;19939;-70
2022/10/04 00:55:33;;;;;;;;;;;20.50;51.20;;;;;;5021263;28;19926;-69
2022/10/04 00:58:07;;;;;;;;;;;20.50;51.20;;;;;;5031395;28;19925;-68
2022/10/04 01:00:34;;;;;;;;;;;20.50;51.20;;;;;;5027990;28;19925;-68
2022/10/04 01:03:02;;;;;;;;;;;20.50;51.20;;;;;;5028962;28;19978;-68
2022/10/04 01:05:29;;;;;;;;;;;20.50;51.20;;;;;;5029367;28;20023;-68
2022/10/04 01:07:57;;;;;;;;;;;20.50;51.20;;;;;;5027212;28;20017;-69
2022/10/04 01:10:27;;;;;;;;;;;20.50;51.20;;;;;;5029782;28;19925;-69
2022/10/04 01:12:54;;;;;;;;;;;20.50;51.20;;;;;;5028553;28;20565;-68
2022/10/04 01:15:23;;;;;;;;;;;20.50;51.20;;;;;;5024185;28;20324;-69
2022/10/04 01:18:07;;;;;;;;;;;20.50;51.20;;;;;;5029889;28;19979;-68
2022/10/04 01:20:35;;;;;;;;;;;20.50;51.20;;;;;;5026017;28;19925;-68
2022/10/04 01:23:05;;;;;;;;;;;20.50;51.10;;;;;;5030067;28;19987;-69
2022/10/04 01:25:47;;;;;;;;;;;20.50;51.10;;;;;;5026725;28;19933;-68
2022/10/04 01:28:16;;;;;;;;;;;20.50;51.10;;;;;;5022919;28;19940;-69
2022/10/04 01:30:43;;;;;;;;;;;20.50;51.20;;;;;;5028528;28;20017;-69
2022/10/04 01:33:11;;;;;;;;;;;20.50;51.20;;;;;;5026130;28;19963;-70
2022/10/04 01:35:37;;;;;;;;;;;20.50;51.10;;;;;;5029302;28;19924;-69
2022/10/04 01:38:06;;;;;;;;;;;20.50;51.10;;;;;;5027694;28;19925;-69
2022/10/04 01:40:33;;;;;;;;;;;20.40;51.00;;;;;;5025607;28;20019;-69
2022/10/04 01:43:01;;;;;;;;;;;20.40;51.00;;;;;;5028807;28;19960;-71
2022/10/04 01:45:28;;;;;;;;;;;20.50;51.10;;;;;;5028042;28;19928;-69
2022/10/04 01:47:56;;;;;;;;;;;20.50;51.10;;;;;;5028788;28;19932;-69
2022/10/04 01:50:24;;;;;;;;;;;20.50;51.00;;;;;;5029442;28;19925;-68
2022/10/04 01:52:51;;;;;;;;;;;20.40;50.90;;;;;;5019875;28;19971;-69
2022/10/04 01:55:20;;;;;;;;;;;20.50;51.00;;;;;;5026980;28;20023;-70
2022/10/04 01:57:49;;;;;;;;;;;20.50;51.00;;;;;;5021805;28;19929;-68
2022/10/04 02:00:20;;;;;;;;;;;20.40;50.90;;;;;;5030141;28;20075;-68
2022/10/04 02:02:49;;;;;;;;;;;20.50;51.00;;;;;;5030955;28;19940;-68
2022/10/04 02:05:18;;;;;;;;;;;20.50;51.00;;;;;;5030586;28;20012;-69
2022/10/04 02:07:45;;;;;;;;;;;20.50;51.00;;;;;;5020996;28;20021;-69
2022/10/04 02:10:15;;;;;;;;;;;20.50;51.00;;;;;;5025063;28;20023;-70
2022/10/04 02:12:44;;;;;;;;;;;20.50;51.00;;;;;;5029370;28;20024;-70
2022/10/04 02:15:11;;;;;;;;;;;20.50;51.00;;;;;;5030478;28;19925;-69
2022/10/04 02:17:38;;;;;;;;;;;20.50;51.00;;;;;;5030257;28;20438;-68
2022/10/04 02:20:08;;;;;;;;;;;20.50;51.00;;;;;;5027388;28;20023;-69
2022/10/04 02:22:35;;;;;;;;;;;20.40;50.90;;;;;;5028993;28;19931;-69
2022/10/04 02:25:02;;;;;;;;;;;20.40;50.90;;;;;;5033203;28;20028;-68
2022/10/04 02:27:30;;;;;;;;;;;20.40;50.90;;;;;;5033705;28;20630;-68
2022/10/04 02:30:01;;;;;;;;;;;20.50;50.90;;;;;;5030562;28;19925;-69
2022/10/04 02:35:14;;;;;;;;;;;20.40;50.90;;;;;;5028675;28;19971;-69
2022/10/04 02:37:41;;;;;;;;;;;20.40;50.90;;;;;;5021566;28;19929;-70
2022/10/04 02:40:09;;;;;;;;;;;20.50;50.90;;;;;;5018616;28;19925;-70
2022/10/04 02:42:38;;;;;;;;;;;20.40;50.90;;;;;;5012721;28;19925;-69
2022/10/04 02:45:10;;;;;;;;;;;20.40;50.90;;;;;;5028977;28;19925;-69
2022/10/04 02:47:40;;;;;;;;;;;20.40;50.90;;;;;;5030440;28;19999;-69
2022/10/04 02:50:07;;;;;;;;;;;20.40;50.90;;;;;;5029833;28;20020;-69
2022/10/04 02:52:34;;;;;;;;;;;20.40;50.90;;;;;;5027854;28;20027;-70
2022/10/04 02:55:02;;;;;;;;;;;20.40;50.80;;;;;;5028006;28;20008;-69
2022/10/04 02:57:29;;;;;;;;;;;20.40;50.90;;;;;;5012833;28;19980;-67
2022/10/04 03:00:01;;;;;;;;;;;20.40;50.80;;;;;;5022143;28;19932;-68
2022/10/04 03:05:06;;;;;;;;;;;20.40;50.80;;;;;;5011650;28;20291;-68
2022/10/04 03:07:33;;;;;;;;;;;20.40;50.80;;;;;;5031659;28;19925;-67
2022/10/04 03:10:00;;;;;;;;;;;20.40;50.80;;;;;;5039977;28;20004;-67
2022/10/04 03:12:26;;;;;;;;;;;20.40;50.80;;;;;;5023422;28;20024;-68
2022/10/04 03:14:53;;;;;;;;;;;20.40;50.80;;;;;;5033634;28;20020;-67
2022/10/04 03:17:20;;;;;;;;;;;20.40;50.80;;;;;;5032924;28;19929;-68
2022/10/04 03:19:47;;;;;;;;;;;20.40;50.80;;;;;;5017992;28;19930;-67
2022/10/04 03:22:15;;;;;;;;;;;20.40;50.80;;;;;;5042369;28;19932;-67
2022/10/04 03:24:45;;;;;;;;;;;20.40;50.80;;;;;;5032200;28;19968;-67
2022/10/04 03:27:14;;;;;;;;;;;20.40;50.80;;;;;;5048486;28;19956;-67
2022/10/04 03:29:41;;;;;;;;;;;20.40;50.80;;;;;;5028923;28;19953;-68
2022/10/04 03:32:10;;;;;;;;;;;20.40;50.80;;;;;;5028533;28;19925;-68
2022/10/04 03:34:37;;;;;;;;;;;20.40;50.80;;;;;;5032200;28;19929;-67
2022/10/04 03:37:06;;;;;;;;;;;20.40;50.80;;;;;;5046718;28;19956;-67
2022/10/04 03:39:34;;;;;;;;;;;20.40;50.80;;;;;;5035153;28;19975;-68
2022/10/04 03:42:03;;;;;;;;;;;20.40;50.80;;;;;;5033655;28;19929;-68
2022/10/04 03:44:30;;;;;;;;;;;20.40;50.80;;;;;;5031834;28;19937;-67
2022/10/04 03:46:57;;;;;;;;;;;20.40;50.70;;;;;;5031743;28;20018;-67
2022/10/04 03:49:25;;;;;;;;;;;20.40;50.80;;;;;;5032151;28;19925;-67
2022/10/04 03:51:52;;;;;;;;;;;20.40;50.80;;;;;;5019123;28;20286;-67
2022/10/04 03:54:21;;;;;;;;;;;20.40;50.70;;;;;;5025528;28;19925;-68
2022/10/04 03:56:49;;;;;;;;;;;20.40;50.70;;;;;;5030783;28;19980;-67
2022/10/04 03:59:16;;;;;;;;;;;20.40;50.80;;;;;;5048011;28;20322;-68
2022/10/04 04:01:45;;;;;;;;;;;20.40;50.70;;;;;;5046099;28;20023;-68
2022/10/04 04:04:14;;;;;;;;;;;20.40;50.70;;;;;;5045504;28;19925;-67
2022/10/04 04:06:42;;;;;;;;;;;20.40;50.80;;;;;;5031614;28;20013;-67
2022/10/04 04:09:08;;;;;;;;;;;20.40;50.80;;;;;;5024203;28;19936;-67
2022/10/04 04:11:35;;;;;;;;;;;20.40;50.80;;;;;;5024645;28;19987;-67
2022/10/04 04:14:04;;;;;;;;;;;20.40;50.80;;;;;;5048842;28;19987;-67
2022/10/04 04:16:30;;;;;;;;;;;20.40;50.80;;;;;;5018422;28;19925;-68
2022/10/04 04:18:59;;;;;;;;;;;20.40;50.80;;;;;;5048221;28;19983;-68
2022/10/04 04:21:26;;;;;;;;;;;20.40;50.80;;;;;;5031194;28;19925;-68
2022/10/04 04:23:53;;;;;;;;;;;20.40;50.80;;;;;;5030698;28;19928;-68
2022/10/04 04:26:23;;;;;;;;;;;20.40;50.80;;;;;;5031364;28;19931;-68
2022/10/04 04:28:50;;;;;;;;;;;20.40;50.80;;;;;;5047623;28;20019;-67
2022/10/04 04:31:19;;;;;;;;;;;20.40;50.80;;;;;;5045989;28;20079;-68
2022/10/04 04:33:47;;;;;;;;;;;20.40;50.80;;;;;;5047750;28;19925;-67
2022/10/04 04:36:14;;;;;;;;;;;20.40;50.80;;;;;;5032542;28;19925;-67
2022/10/04 04:39:33;;;;;;;;;;;20.40;50.80;;;;;;5030830;28;19925;-68
2022/10/04 04:41:28;;;;;;;;;;;20.40;50.80;;;;;;5019901;28;20005;-68
2022/10/04 04:43:54;;;;;;;;;;;20.40;50.80;;;;;;5030750;28;20012;-69
2022/10/04 04:46:23;;;;;;;;;;;20.40;50.80;;;;;;5027106;28;19932;-70
2022/10/04 04:48:50;;;;;;;;;;;20.40;50.80;;;;;;5043576;28;19925;-67
2022/10/04 04:51:22;;;;;;;;;;;20.40;50.80;;;;;;5031462;28;19937;-68
2022/10/04 04:53:49;;;;;;;;;;;20.40;50.80;;;;;;5047339;28;20016;-68
2022/10/04 04:56:18;;;;;;;;;;;20.30;50.80;;;;;;5030658;28;19994;-67
2022/10/04 04:58:45;;;;;;;;;;;20.40;50.80;;;;;;5031845;28;20007;-67
2022/10/04 05:01:14;;;;;;;;;;;20.40;50.80;;;;;;5027176;28;20394;-68
2022/10/04 05:03:42;;;;;;;;;;;20.40;50.80;;;;;;5026452;28;20016;-68
2022/10/04 05:06:18;;;;;;;;;;;20.40;50.80;;;;;;5026806;28;19932;-68
2022/10/04 05:08:48;;;;;;;;;;;20.40;50.80;;;;;;5026475;28;19937;-69
2022/10/04 05:11:15;;;;;;;;;;;20.40;50.80;;;;;;5042680;28;19927;-68
2022/10/04 05:13:45;;;;;;;;;;;20.40;50.80;;;;;;5020896;28;20201;-67
2022/10/04 05:16:12;;;;;;;;;;;20.40;50.80;;;;;;5023700;28;19963;-69
2022/10/04 05:18:39;;;;;;;;;;;20.40;50.80;;;;;;5046416;28;19996;-67
2022/10/04 05:21:08;;;;;;;;;;;20.40;50.80;;;;;;5026476;28;19925;-68
2022/10/04 05:23:35;;;;;;;;;;;20.30;50.80;;;;;;5046776;28;19925;-68
2022/10/04 05:26:03;;;;;;;;;;;20.40;50.90;;;;;;5029772;28;20019;-69
2022/10/04 05:28:29;;;;;;;;;;;20.40;50.80;;;;;;5037973;28;19929;-68
2022/10/04 05:31:01;;;;;;;;;;;20.40;50.90;;;;;;5039209;28;19925;-68
2022/10/04 05:33:37;;;;;;;;;;;20.30;50.70;;;;;;5029340;28;19925;-69
2022/10/04 05:36:16;;;;;;;;;;;20.30;50.70;;;;;;5031335;28;19925;-68
2022/10/04 05:38:44;;;;;;;;;;;20.40;50.80;;;;;;5023918;28;19964;-67
2022/10/04 05:41:13;;;;;;;;;;;20.40;50.80;;;;;;5046470;28;19925;-67
2022/10/04 05:43:44;;;;;;;;;;;20.40;50.80;;;;;;5030951;28;20023;-68
2022/10/04 05:46:12;;;;;;;;;;;20.40;50.80;;;;;;5030047;28;20442;-69
2022/10/04 05:48:39;;;;;;;;;;;20.30;50.70;;;;;;5027400;28;19996;-69
2022/10/04 05:51:13;;;;;;;;;;;20.40;50.80;;;;;;5029196;28;19972;-68
2022/10/04 05:53:40;;;;;;;;;;;20.30;50.70;;;;;;5030300;28;19925;-68
2022/10/04 05:56:10;;;;;;;;;;;20.30;50.70;;;;;;5027338;28;19952;-69
2022/10/04 05:58:40;;;;;;;;;;;20.30;50.70;;;;;;5029461;28;19932;-68
2022/10/04 06:01:14;;;;;;;;;;;20.30;50.70;;;;;;5032129;28;20015;-68
2022/10/04 06:03:48;;;;;;;;;;;20.30;50.70;;;;;;5029525;28;19929;-69
2022/10/04 06:06:17;;;;;;;;;;;20.30;50.80;;;;;;5030105;28;20368;-68
2022/10/04 06:08:46;;;;;;;;;;;20.30;50.70;;;;;;5030561;28;19964;-68
2022/10/04 06:11:25;;;;;;;;;;;20.30;50.70;;;;;;5018534;28;19964;-68
2022/10/04 06:14:25;;;;;;;;;;;20.30;50.70;;;;;;5011039;28;19979;-68
2022/10/04 06:17:08;;;;;;;;;;;20.30;50.70;;;;;;5040791;28;20007;-68
2022/10/04 06:19:43;;;;;;;;;;;20.30;50.70;;;;;;5030461;28;19931;-68
2022/10/04 06:22:16;;;;;;;;;;;20.30;50.70;;;;;;5030911;28;19960;-69
2022/10/04 06:24:44;;;;;;;;;;;20.30;50.70;;;;;;5022841;28;19925;-68
2022/10/04 06:27:12;;;;;;;;;;;20.30;50.70;;;;;;5024270;28;19925;-68
2022/10/04 06:29:39;;;;;;;;;;;20.30;50.70;;;;;;5018254;28;19925;-69
2022/10/04 06:32:10;;;;;;;;;;;20.30;50.70;;;;;;5037072;28;19976;-69
2022/10/04 06:34:44;;;;;;;;;;;20.30;50.70;;;;;;5035796;28;20028;-70
2022/10/04 06:37:14;;;;;;;;;;;20.30;50.70;;;;;;5023477;28;19963;-70
2022/10/04 06:39:46;;;;;;;;;;;20.30;50.70;;;;;;5038535;28;19929;-68
2022/10/04 06:42:15;;;;;;;;;;;20.30;50.70;;;;;;5043384;28;19971;-68
2022/10/04 06:44:45;;;;;;;;;;;20.30;50.70;;;;;;5043383;28;19933;-68
2022/10/04 06:47:16;;;;;;;;;;;20.30;50.70;;;;;;5042582;28;20543;-68
2022/10/04 06:49:44;;;;;;;;;;;20.30;50.70;;;;;;5029744;28;19925;-68
2022/10/04 06:52:19;;;;;;;;;;;20.30;50.70;;;;;;5042971;28;19960;-69
2022/10/04 06:54:51;;;;;;;;;;;20.30;50.70;;;;;;5032648;28;19979;-68
2022/10/04 06:57:30;;;;;;;;;;;20.30;50.70;;;;;;5037801;28;19961;-68
2022/10/04 07:00:01;;;;;;;;;;;20.30;50.70;;;;;;5049082;28;19925;-68
2022/10/04 07:02:31;;;;;;;;;;;20.30;50.60;;;;;;5048414;28;19994;-67
2022/10/04 07:04:58;;;;;;;;;;;20.30;50.70;;;;;;5038343;28;19925;-69
2022/10/04 07:07:38;;;;;;;;;;;20.40;50.70;;;;;;5026874;28;19972;-69
2022/10/04 07:10:10;;;;;;;;;;;20.30;50.70;;;;;;5031701;28;19932;-68
2022/10/04 07:12:38;;;;;;;;;;;20.40;50.80;;;;;;5046308;28;19925;-66
2022/10/04 07:15:06;;;;;;;;;;;20.40;50.80;;;;;;5030844;28;20023;-66
2022/10/04 07:17:38;;;;;;;;;;;20.40;50.90;;;;;;5048915;28;19926;-66
2022/10/04 07:20:05;;;;;;;;;;;20.40;50.90;;;;;;5029687;28;20008;-66
2022/10/04 07:22:34;;;;;;;;;;;20.40;51.00;;;;;;5048190;28;19925;-68
2022/10/04 07:25:04;;;;;;;;;;;20.40;51.00;;;;;;5044336;28;20028;-68
2022/10/04 07:27:33;;;;;;;;;;;20.40;51.00;;;;;;5042949;28;20032;-67
2022/10/04 07:30:00;;;;;;;;;;;20.50;51.70;;;;;;5046140;28;19933;-66
2022/10/04 07:32:27;;;;;;;;;;;20.50;51.20;;;;;;5047265;28;19925;-67
2022/10/04 07:34:54;;;;;;;;;;;20.40;51.10;;;;;;5025593;28;19925;-66
2022/10/04 07:37:21;;;;;;;;;;;20.50;51.20;;;;;;5030230;28;19925;-66
2022/10/04 07:39:49;;;;;;;;;;;20.50;51.20;;;;;;5029993;28;19925;-65
2022/10/04 07:42:19;;;;;;;;;;;20.50;51.20;;;;;;5046892;28;20010;-65
2022/10/04 07:44:47;;;;;;;;;;;20.50;51.30;;;;;;5030624;28;19932;-69
2022/10/04 07:47:18;;;;;;;;;;;20.50;51.30;;;;;;5048233;28;19964;-67
2022/10/04 07:49:44;;;;;;;;;;;20.60;51.40;;;;;;5031398;28;20041;-67
2022/10/04 07:52:29;;;;;;;;;;;20.50;51.30;;;;;;5033471;28;19929;-65
2022/10/04 07:54:57;;;;;;;;;;;20.50;51.30;;;;;;5048430;28;20011;-68
2022/10/04 07:57:26;;;;;;;;;;;20.60;51.40;;;;;;5043250;28;20023;-65
2022/10/04 07:59:57;;;;;;;;;;;20.60;51.30;;;;;;5033337;28;20020;-65
2022/10/04 08:02:26;;;;;;;;;;;20.60;51.40;;;;;;5044197;28;19964;-65
2022/10/04 08:04:55;;;;;;;;;;;20.60;51.40;;;;;;5028736;28;19927;-68
2022/10/04 08:07:22;;;;;;;;;;;20.60;51.40;;;;;;5030886;28;20023;-68
2022/10/04 08:09:56;;;;;;;;;;;20.60;51.40;;;;;;5048330;28;19925;-70
2022/10/04 08:12:24;;;;;;;;;;;20.60;51.40;;;;;;5030749;28;19925;-67
2022/10/04 08:14:53;;;;;;;;;;;20.70;51.40;;;;;;5049538;28;19956;-67
2022/10/04 08:17:28;;;;;;;;;;;20.70;51.50;;;;;;5045067;28;19972;-68
2022/10/04 08:19:57;;;;;;;;;;;20.60;51.40;;;;;;5029813;28;19929;-68
2022/10/04 08:22:28;;;;;;;;;;;20.70;51.50;;;;;;5030408;28;20018;-67
2022/10/04 08:24:59;;;;;;;;;;;20.70;51.50;;;;;;5047414;28;19929;-69
2022/10/04 08:27:38;;;;;;;;;;;20.70;51.50;;;;;;5025955;28;19929;-68
2022/10/04 08:30:08;;;;;;;;;;;20.70;51.50;;;;;;5032586;28;20015;-69
2022/10/04 08:32:53;;;;;;;;;;;20.70;51.50;;;;;;5046080;28;19983;-69
2022/10/04 08:35:32;;;;;;;;;;;20.70;51.50;;;;;;5020586;28;19933;-70
2022/10/04 08:38:15;;;;;;;;;;;20.70;51.50;;;;;;5045145;28;19931;-68
2022/10/04 08:40:47;;;;;;;;;;;20.80;51.60;;;;;;5015370;28;19983;-68
2022/10/04 08:43:19;;;;;;;;;;;20.70;51.50;;;;;;5030819;28;20352;-67
2022/10/04 08:46:19;;;;;;;;;;;20.70;52.10;;;;;;5045960;28;19925;-68
2022/10/04 08:48:57;;;;;;;;;;;20.70;51.50;;;;;;4951623;28;19926;-67
2022/10/04 08:51:37;;;;;;;;;;;20.80;51.60;;;;;;4964048;28;19938;-66
2022/10/04 08:54:34;;;;;;;;;;;20.80;51.60;;;;;;4996022;28;19964;-67
2022/10/04 08:57:05;;;;;;;;;;;20.80;51.60;;;;;;5025647;28;20028;-71
2022/10/04 08:59:35;;;;;;;;;;;20.80;51.60;;;;;;5031505;28;19925;-68
2022/10/04 09:02:24;;;;;;;;;;;20.80;51.60;;;;;;5045590;28;19925;-70
2022/10/04 09:05:09;;;;;;;;;;;20.80;51.60;;;;;;5045542;28;20024;-69
2022/10/04 09:07:42;;;;;;;;;;;20.80;51.60;;;;;;5045553;28;20445;-69
2022/10/04 09:10:18;;;;;;;;;;;20.80;51.60;;;;;;5030551;28;19925;-68
2022/10/04 09:12:49;;;;;;;;;;;20.80;51.60;;;;;;5024847;28;20461;-66
2022/10/04 09:15:21;;;;;;;;;;;20.80;51.60;;;;;;5045269;28;19929;-68
2022/10/04 09:17:53;;;;;;;;;;;20.80;51.60;;;;;;5028154;28;19925;-67
2022/10/04 09:20:21;;;;;;;;;;;20.80;51.60;;;;;;5042486;28;19956;-67
2022/10/04 09:22:56;;;;;;;;;;;20.80;51.60;;;;;;5028552;28;19979;-68
2022/10/04 09:25:25;;;;;;;;;;;20.80;51.60;;;;;;5045709;28;19993;-68
2022/10/04 09:28:15;;;;;;;;;;;20.80;51.60;;;;;;5030310;28;19929;-68
2022/10/04 09:30:48;;;;;;;;;;;20.80;51.60;;;;;;5029683;28;19925;-69
2022/10/04 09:33:34;;;;;;;;;;;20.90;51.60;;;;;;5029726;28;20345;-68
2022/10/04 09:36:19;;;;;;;;;;;20.80;51.60;;;;;;5026471;28;20020;-68
2022/10/04 09:39:10;;;;;;;;;;;20.90;51.60;;;;;;5040823;28;19944;-68
2022/10/04 09:41:57;;;;;;;;;;;20.80;51.50;;;;;;5039032;28;20020;-68
2022/10/04 09:44:44;;;;;;;;;;;20.80;51.60;;;;;;5027260;28;20024;-66
2022/10/04 09:47:20;;;;;;;;;;;20.80;51.60;;;;;;5026720;28;19932;-68
2022/10/04 09:49:52;;;;;;;;;;;20.90;51.60;;;;;;5024570;28;20194;-67
2022/10/04 09:52:30;;;;;;;;;;;20.90;51.60;;;;;;5045245;28;19972;-67
2022/10/04 09:55:03;;;;;;;;;;;20.90;51.60;;;;;;5030116;28;19929;-67
2022/10/04 09:57:39;;;;;;;;;;;20.90;51.60;;;;;;5044124;28;19996;-66
2022/10/04 10:00:13;;;;;;;;;;;20.90;51.60;;;;;;5045265;28;19956;-68
2022/10/04 10:02:58;;;;;;;;;;;20.90;51.60;;;;;;5047269;28;19933;-68
2022/10/04 10:05:30;;;;;;;;;;;20.90;51.60;;;;;;5038648;28;19932;-69
2022/10/04 10:07:59;;;;;;;;;;;20.90;51.70;;;;;;5041447;28;20394;-68
2022/10/04 10:13:41;;;;;;;;;;;20.90;51.60;;;;;;5043399;28;19925;-67
2022/10/04 10:16:12;;;;;;;;;;;20.90;51.60;;;;;;5034053;28;19960;-65
2022/10/04 10:18:42;;;;;;;;;;;20.90;51.60;;;;;;5048319;28;20012;-68
2022/10/04 10:21:36;;;;;;;;;;;20.90;51.60;;;;;;5050253;28;19925;-67
2022/10/04 10:24:06;;;;;;;;;;;20.90;51.60;;;;;;5004735;28;19979;-69
2022/10/04 10:26:41;;;;;;;;;;;20.90;51.70;;;;;;5051021;28;19933;-67
2022/10/04 10:29:26;;;;;;;;;;;20.90;51.70;;;;;;5051708;28;19932;-71
2022/10/04 10:32:03;;;;;;;;;;;20.90;51.60;;;;;;5039991;28;19960;-67
2022/10/04 10:34:42;;;;;;;;;;;20.90;51.60;;;;;;5034255;28;19982;-66
2022/10/04 10:37:09;;;;;;;;;;;20.90;51.60;;;;;;5032386;28;19929;-67
2022/10/04 10:39:52;;;;;;;;;;;20.90;51.70;;;;;;5048510;28;19972;-67
2022/10/04 10:42:26;;;;;;;;;;;20.90;51.60;;;;;;5050075;28;19925;-67
2022/10/04 10:45:12;;;;;;;;;;;21.00;51.80;;;;;;5048863;28;19936;-69
2022/10/04 10:47:40;;;;;;;;;;;20.90;51.70;;;;;;5050916;28;19925;-67
2022/10/04 10:50:15;;;;;;;;;;;21.00;51.80;;;;;;5050667;28;19941;-67
2022/10/04 10:53:03;;;;;;;;;;;21.00;51.80;;;;;;5037955;28;20447;-69
2022/10/04 10:56:00;;;;;;;;;;;21.00;51.80;;;;;;5052359;28;19925;-69
2022/10/04 10:58:35;;;;;;;;;;;20.90;51.70;;;;;;5050672;28;20008;-69
2022/10/04 11:01:07;;;;;;;;;;;20.90;51.70;;;;;;5052731;28;19929;-67
2022/10/04 11:03:43;;;;;;;;;;;20.90;51.70;;;;;;5049855;28;19956;-68
2022/10/04 11:06:14;;;;;;;;;;;20.90;51.70;;;;;;5030538;28;20280;-70
2022/10/04 11:09:05;;;;;;;;;;;21.00;51.80;;;;;;5037995;28;19925;-70
2022/10/04 11:11:40;;;;;;;;;;;21.00;51.70;;;;;;5037611;28;19930;-68
2022/10/04 11:14:22;;;;;;;;;;;20.90;51.60;;;;;;5010609;28;19925;-70
2022/10/04 11:16:55;;;;;;;;;;;20.90;51.60;;;;;;5025633;28;19925;-70
2022/10/04 11:19:28;;;;;;;;;;;20.90;51.60;;;;;;5052119;28;19965;-70
2022/10/04 11:22:25;;;;;;;;;;;20.90;51.60;;;;;;5035934;28;19980;-70
2022/10/04 11:25:06;;;;;;;;;;;20.90;51.60;;;;;;5039920;28;19996;-71
2022/10/04 11:27:36;;;;;;;;;;;20.90;51.60;;;;;;5049247;28;19933;-70
2022/10/04 11:30:22;;;;;;;;;;;20.90;51.60;;;;;;5031154;28;19929;-67
2022/10/04 11:33:13;;;;;;;;;;;20.90;51.60;;;;;;5045910;28;19925;-66
2022/10/04 11:35:55;;;;;;;;;;;20.90;51.60;;;;;;5033835;28;19941;-68
2022/10/04 11:38:27;;;;;;;;;;;20.90;51.60;;;;;;5031629;28;20379;-66
2022/10/04 11:41:00;;;;;;;;;;;20.90;51.60;;;;;;5032505;28;19929;-68
2022/10/04 11:43:34;;;;;;;;;;;20.90;51.60;;;;;;5047374;28;19925;-67
2022/10/04 11:46:05;;;;;;;;;;;21.00;51.70;;;;;;5049177;28;19948;-67
2022/10/04 11:48:34;;;;;;;;;;;20.90;51.60;;;;;;5050768;28;20047;-70
2022/10/04 11:51:10;;;;;;;;;;;20.90;51.60;;;;;;5031055;28;19952;-67
2022/10/04 11:54:02;;;;;;;;;;;21.00;51.70;;;;;;5048662;28;20294;-66
2022/10/04 11:56:32;;;;;;;;;;;21.00;51.70;;;;;;5031311;28;19933;-69
2022/10/04 11:59:09;;;;;;;;;;;20.90;51.60;;;;;;5031655;28;20028;-67
2022/10/04 12:01:49;;;;;;;;;;;21.00;51.70;;;;;;5031762;28;20296;-70
2022/10/04 12:04:21;;;;;;;;;;;21.00;51.70;;;;;;5029629;28;19925;-67
2022/10/04 12:06:52;;;;;;;;;;;21.00;51.70;;;;;;5047660;28;19925;-70
2022/10/04 12:09:19;;;;;;;;;;;21.00;51.70;;;;;;5034549;28;19925;-71
2022/10/04 12:14:43;;;;;;;;;;;21.00;51.60;;;;;;5020940;28;19932;-70
2022/10/04 12:17:32;;;;;;;;;;;21.00;51.70;;;;;;5045566;28;19929;-71
2022/10/04 12:20:20;;;;;;;;;;;21.00;51.70;;;;;;5042986;28;19932;-67
2022/10/04 12:22:54;;;;;;;;;;;21.00;51.70;;;;;;5008552;28;19936;-67
2022/10/04 12:25:41;;;;;;;;;;;21.00;51.70;;;;;;5033302;28;20025;-68
2022/10/04 12:28:16;;;;;;;;;;;21.00;51.70;;;;;;5030323;28;19932;-69
2022/10/04 12:31:00;;;;;;;;;;;21.00;51.80;;;;;;5047926;28;20020;-68
2022/10/04 12:33:30;;;;;;;;;;;21.10;51.70;;;;;;5038514;28;20012;-69
2022/10/04 12:35:58;;;;;;;;;;;21.10;51.60;;;;;;5041334;28;19979;-68
2022/10/04 12:38:47;;;;;;;;;;;21.10;51.60;;;;;;5032890;28;19998;-69
2022/10/04 12:41:17;;;;;;;;;;;21.10;51.40;;;;;;5019614;28;19936;-70
2022/10/04 12:43:48;;;;;;;;;;;21.10;51.40;;;;;;5026153;28;19956;-68
2022/10/04 12:46:18;;;;;;;;;;;21.10;51.30;;;;;;5044698;28;20031;-68
2022/10/04 12:49:03;;;;;;;;;;;21.10;51.20;;;;;;5047226;28;19928;-70
2022/10/04 12:51:42;;;;;;;;;;;21.10;51.20;;;;;;5045012;28;19932;-69
2022/10/04 12:54:17;;;;;;;;;;;21.10;51.20;;;;;;5028794;28;20029;-68
2022/10/04 12:56:45;;;;;;;;;;;21.10;51.10;;;;;;5047189;28;19925;-72
2022/10/04 12:59:23;;;;;;;;;;;21.10;51.00;;;;;;5047999;28;20039;-67
2022/10/04 13:01:53;;;;;;;;;;;21.10;51.10;;;;;;5049578;28;19975;-69
2022/10/04 13:04:29;;;;;;;;;;;21.10;51.10;;;;;;5046874;28;19926;-66
2022/10/04 13:07:13;;;;;;;;;;;21.10;51.10;;;;;;5031356;28;19925;-68
2022/10/04 13:09:43;;;;;;;;;;;21.10;51.10;;;;;;5028427;28;19955;-69
2022/10/04 13:12:13;;;;;;;;;;;21.10;51.10;;;;;;5043663;28;19929;-69
2022/10/04 13:14:45;;;;;;;;;;;21.10;51.10;;;;;;5046943;28;19932;-67
2022/10/04 13:17:14;;;;;;;;;;;21.10;51.10;;;;;;5030629;28;19971;-67
2022/10/04 13:19:43;;;;;;;;;;;21.10;51.10;;;;;;5031537;28;19972;-67
2022/10/04 13:22:13;;;;;;;;;;;21.10;51.10;;;;;;5028252;28;19940;-66
2022/10/04 13:24:54;;;;;;;;;;;21.10;51.00;;;;;;5031677;28;19994;-67
2022/10/04 13:27:22;;;;;;;;;;;21.10;51.10;;;;;;5045020;28;19975;-68
2022/10/04 13:29:53;;;;;;;;;;;21.10;51.00;;;;;;5030087;28;20026;-70
2022/10/04 13:32:20;;;;;;;;;;;21.20;51.10;;;;;;5028951;28;20024;-69
2022/10/04 13:34:49;;;;;;;;;;;21.10;50.90;;;;;;5023659;28;19925;-70
2022/10/04 13:37:20;;;;;;;;;;;21.10;50.70;;;;;;5026423;28;19964;-68
2022/10/04 13:39:57;;;;;;;;;;;21.20;50.80;;;;;;5046967;28;19925;-68
2022/10/04 13:42:32;;;;;;;;;;;21.10;50.80;;;;;;5046656;28;19925;-66
2022/10/04 13:45:03;;;;;;;;;;;21.20;50.90;;;;;;5030506;28;19932;-69
2022/10/04 13:47:44;;;;;;;;;;;21.20;50.90;;;;;;5025870;28;19936;-66
2022/10/04 13:50:27;;;;;;;;;;;21.20;50.90;;;;;;5041719;28;20006;-73
2022/10/04 13:58:29;;;;;;;;;;;21.20;50.90;;;;;;5030942;28;19932;-69
2022/10/04 14:01:03;;;;;;;;;;;21.20;50.90;;;;;;5029217;28;20414;-67
2022/10/04 14:03:34;;;;;;;;;;;21.20;50.90;;;;;;5030978;28;19933;-67
2022/10/04 14:06:12;;;;;;;;;;;21.20;50.90;;;;;;5030635;28;20379;-67
2022/10/04 14:08:47;;;;;;;;;;;21.20;50.90;;;;;;5032672;28;19925;-68
2022/10/04 14:11:20;;;;;;;;;;;21.20;50.90;;;;;;5046645;28;19925;-66
2022/10/04 14:13:59;;;;;;;;;;;21.20;50.80;;;;;;5042053;28;20016;-66
2022/10/04 14:16:34;;;;;;;;;;;21.20;50.80;;;;;;5046832;28;19929;-66
2022/10/04 14:19:29;;;;;;;;;;;21.20;50.80;;;;;;5030672;28;19925;-67
2022/10/04 14:22:20;;;;;;;;;;;21.20;50.80;;;;;;5041539;28;19929;-67
2022/10/04 14:25:05;;;;;;;;;;;21.20;50.70;;;;;;5030118;28;19925;-67
2022/10/04 14:27:50;;;;;;;;;;;21.20;50.80;;;;;;5029686;28;19929;-67
2022/10/04 14:30:19;;;;;;;;;;;21.20;50.70;;;;;;5030353;28;19960;-67
2022/10/04 14:32:51;;;;;;;;;;;21.20;50.70;;;;;;5021072;28;19940;-69
2022/10/04 14:35:19;;;;;;;;;;;21.20;50.70;;;;;;5041658;28;19936;-69
2022/10/04 14:38:10;;;;;;;;;;;21.20;50.70;;;;;;5031244;28;20030;-68
2022/10/04 14:41:00;;;;;;;;;;;21.20;50.60;;;;;;5009500;28;20010;-69
2022/10/04 14:43:47;;;;;;;;;;;21.20;50.60;;;;;;5046253;28;20023;-70
2022/10/04 14:46:16;;;;;;;;;;;21.20;50.60;;;;;;5019696;28;19925;-67
2022/10/04 14:48:47;;;;;;;;;;;21.20;50.60;;;;;;5045989;28;19933;-69
2022/10/04 14:51:26;;;;;;;;;;;21.20;50.50;;;;;;5030435;28;19936;-68
2022/10/04 14:53:55;;;;;;;;;;;21.20;50.50;;;;;;5026719;28;19925;-67
2022/10/04 14:56:49;;;;;;;;;;;21.20;50.50;;;;;;5026226;28;19929;-68
2022/10/04 14:59:21;;;;;;;;;;;21.20;50.40;;;;;;5025397;28;20397;-68
2022/10/04 15:02:07;;;;;;;;;;;21.20;50.50;;;;;;5050351;28;19968;-68
2022/10/04 15:04:36;;;;;;;;;;;21.20;50.50;;;;;;5034566;28;20020;-68